Time;durP1;ratioP1;P1;durP2;ratioP2;P2;SDS_P1;SDS_P2;PMS_P1;PMS_P2;Temp;Humidity;BMP_temperature;BMP_pressure;BME280_temperature;BME280_humidity;BME280_pressure;Samples;Min_cycle;Max_cycle;Signal;HPM_P1;HPM_P2
2023/08/01 00:00:17;;;;;;;11.80;5.60;;;19.50;67.30;;;;;;5083394;28;20046;-70
2023/08/01 00:02:45;;;;;;;12.45;4.95;;;19.50;67.40;;;;;;5087163;28;20749;-75
2023/08/01 00:05:11;;;;;;;16.10;5.40;;;19.50;67.50;;;;;;5088980;28;20028;-75
2023/08/01 00:07:36;;;;;;;11.90;5.78;;;19.50;67.50;;;;;;5078312;28;20032;-72
2023/08/01 00:10:03;;;;;;;14.98;5.47;;;19.50;67.60;;;;;;5081224;28;20061;-69
2023/08/01 00:12:29;;;;;;;14.50;4.88;;;19.40;67.40;;;;;;5073192;28;20032;-74
2023/08/01 00:14:55;;;;;;;12.85;5.07;;;19.40;67.50;;;;;;5083296;28;20042;-71
2023/08/01 00:17:21;;;;;;;11.38;4.68;;;19.40;67.50;;;;;;5086427;28;20023;-74
2023/08/01 00:19:47;;;;;;;10.48;4.72;;;19.40;67.60;;;;;;5097108;28;20036;-70
2023/08/01 00:22:13;;;;;;;12.23;5.05;;;19.30;67.50;;;;;;5097654;28;20066;-68
2023/08/01 00:24:38;;;;;;;12.82;5.43;;;19.40;67.70;;;;;;5090451;28;20024;-67
2023/08/01 00:27:05;;;;;;;13.95;5.25;;;19.30;67.60;;;;;;5090673;28;20016;-70
2023/08/01 00:29:31;;;;;;;11.20;4.85;;;19.30;67.60;;;;;;5088418;28;20547;-69
2023/08/01 00:31:57;;;;;;;11.30;4.72;;;19.30;67.70;;;;;;5077219;28;20034;-70
2023/08/01 00:34:23;;;;;;;15.07;4.82;;;19.30;67.80;;;;;;5083120;28;20177;-67
2023/08/01 00:36:49;;;;;;;9.95;4.80;;;19.30;67.80;;;;;;5080893;28;20733;-66
2023/08/01 00:39:15;;;;;;;7.55;3.65;;;19.30;67.80;;;;;;5085976;28;20028;-66
2023/08/01 00:41:41;;;;;;;7.53;3.88;;;19.30;67.90;;;;;;5079540;28;20047;-71
2023/08/01 00:44:07;;;;;;;10.70;4.00;;;19.20;67.80;;;;;;5081230;28;20124;-67
2023/08/01 00:46:33;;;;;;;9.75;3.60;;;19.20;67.80;;;;;;5080635;28;20801;-68
2023/08/01 00:49:00;;;;;;;10.23;4.10;;;19.20;67.90;;;;;;5075445;28;20837;-67
2023/08/01 00:51:27;;;;;;;10.13;3.92;;;19.20;67.90;;;;;;5082014;28;20559;-65
2023/08/01 00:53:53;;;;;;;8.85;3.90;;;19.10;67.80;;;;;;5080666;28;20036;-67
2023/08/01 00:56:20;;;;;;;10.85;4.22;;;19.10;67.80;;;;;;5085884;28;20130;-69
2023/08/01 00:58:45;;;;;;;7.90;4.03;;;19.10;67.80;;;;;;5082198;28;20055;-68
2023/08/01 01:01:11;;;;;;;8.30;3.50;;;19.10;68.00;;;;;;5081294;28;20032;-68
2023/08/01 01:03:39;;;;;;;12.35;5.05;;;19.00;67.80;;;;;;5076563;28;20032;-71
2023/08/01 01:06:40;;;;;;;8.60;4.10;;;19.10;68.00;;;;;;5079140;28;20039;-67
2023/08/01 01:09:20;;;;;;;11.35;5.18;;;19.00;67.90;;;;;;5054830;28;20386;-71
2023/08/01 01:11:46;;;;;;;14.48;5.82;;;19.00;68.00;;;;;;5090411;28;20042;-67
2023/08/01 01:14:13;;;;;;;13.57;4.88;;;19.00;68.00;;;;;;5079742;28;20032;-69
2023/08/01 01:16:42;;;;;;;14.07;5.10;;;19.00;68.10;;;;;;5079315;28;20043;-71
2023/08/01 01:19:09;;;;;;;14.00;4.78;;;19.00;68.20;;;;;;5078820;28;20594;-68
2023/08/01 01:21:38;;;;;;;13.23;5.13;;;19.00;68.20;;;;;;5079925;28;20032;-66
2023/08/01 01:24:06;;;;;;;11.70;4.10;;;18.90;68.10;;;;;;5079405;28;20748;-67
2023/08/01 01:26:34;;;;;;;11.00;4.28;;;19.00;68.90;;;;;;5082886;28;20051;-75
2023/08/01 01:29:02;;;;;;;12.05;4.32;;;18.90;68.20;;;;;;5080789;28;20047;-70
2023/08/01 01:31:30;;;;;;;8.13;3.90;;;18.90;68.20;;;;;;5079699;28;20040;-68
2023/08/01 01:33:56;;;;;;;6.68;2.90;;;18.80;68.10;;;;;;5080094;28;20129;-67
2023/08/01 01:36:22;;;;;;;7.63;3.53;;;18.90;68.30;;;;;;5077919;28;20040;-79
2023/08/01 01:38:48;;;;;;;12.32;4.03;;;18.80;68.10;;;;;;5079659;28;20483;-68
2023/08/01 01:41:14;;;;;;;8.68;4.28;;;18.80;68.10;;;;;;5079524;28;20035;-69
2023/08/01 01:43:40;;;;;;;11.80;4.22;;;18.80;68.20;;;;;;5071156;28;20032;-69
2023/08/01 01:46:07;;;;;;;5.28;2.58;;;18.80;68.20;;;;;;5075691;28;20440;-67
2023/08/01 01:48:33;;;;;;;6.90;3.63;;;18.80;68.20;;;;;;5082336;28;20127;-70
2023/08/01 01:50:59;;;;;;;13.40;3.60;;;18.70;68.00;;;;;;5087635;28;20174;-74
2023/08/01 01:53:24;;;;;;;8.35;3.35;;;18.70;68.10;;;;;;5091571;28;20841;-66
2023/08/01 01:55:50;;;;;;;7.60;3.00;;;18.70;68.10;;;;;;5088276;28;20034;-69
2023/08/01 01:58:16;;;;;;;8.15;3.20;;;18.70;68.10;;;;;;5080255;28;20387;-69
2023/08/01 02:00:42;;;;;;;7.15;3.10;;;18.70;68.80;;;;;;5087418;28;20408;-68
2023/08/01 02:03:10;;;;;;;7.72;2.85;;;18.60;68.00;;;;;;5090988;28;20051;-70
2023/08/01 02:05:37;;;;;;;9.52;4.07;;;18.60;68.10;;;;;;5082401;28;20066;-67
2023/08/01 02:08:04;;;;;;;12.00;4.25;;;18.60;68.10;;;;;;5079357;28;20044;-71
2023/08/01 02:10:32;;;;;;;6.88;3.25;;;18.60;68.20;;;;;;5081661;28;20032;-71
2023/08/01 02:12:58;;;;;;;7.97;3.92;;;18.60;68.20;;;;;;5082582;28;20058;-72
2023/08/01 02:15:24;;;;;;;7.35;3.47;;;18.50;68.10;;;;;;5086257;28;20046;-67
2023/08/01 02:17:50;;;;;;;6.93;3.17;;;18.50;68.10;;;;;;5083837;28;20484;-66
2023/08/01 02:20:17;;;;;;;7.15;2.92;;;18.50;68.20;;;;;;5084528;28;20081;-66
2023/08/01 02:22:42;;;;;;;8.35;4.95;;;18.50;68.20;;;;;;5088609;28;20043;-66
2023/08/01 02:25:08;;;;;;;7.25;3.10;;;18.40;68.10;;;;;;5079483;28;20042;-67
2023/08/01 02:27:34;;;;;;;8.32;3.50;;;18.40;68.10;;;;;;5084503;28;20021;-68
2023/08/01 02:30:00;;;;;;;8.30;3.20;;;18.40;68.10;;;;;;5086649;28;20853;-70
2023/08/01 02:32:26;;;;;;;8.77;3.38;;;18.40;68.20;;;;;;5089115;28;20038;-67
2023/08/01 02:34:53;;;;;;;9.77;3.63;;;18.40;68.30;;;;;;5085661;28;20055;-71
2023/08/01 02:37:18;;;;;;;6.60;3.13;;;18.30;68.10;;;;;;5088594;28;20042;-66
2023/08/01 02:39:44;;;;;;;8.65;3.58;;;18.30;68.20;;;;;;5086156;28;20486;-67
2023/08/01 02:42:11;;;;;;;5.57;2.83;;;18.30;68.20;;;;;;5082709;28;20032;-74
2023/08/01 02:44:37;;;;;;;12.07;4.07;;;18.30;68.30;;;;;;5085320;28;20049;-67
2023/08/01 02:47:03;;;;;;;8.15;2.80;;;18.20;68.20;;;;;;5080992;28;20127;-70
2023/08/01 02:49:29;;;;;;;9.88;3.55;;;18.20;68.20;;;;;;5081350;28;20040;-69
2023/08/01 02:51:55;;;;;;;6.88;3.30;;;18.20;68.30;;;;;;5092244;28;20051;-66
2023/08/01 02:54:21;;;;;;;7.35;2.92;;;18.20;68.40;;;;;;5092133;28;20044;-71
2023/08/01 02:56:47;;;;;;;9.48;4.18;;;18.20;68.40;;;;;;5087073;28;20032;-68
2023/08/01 02:59:13;;;;;;;5.97;2.72;;;18.20;68.50;;;;;;5082668;28;20028;-71
2023/08/01 03:01:39;;;;;;;4.15;2.33;;;18.20;69.10;;;;;;5093682;28;20027;-74
2023/08/01 03:04:06;;;;;;;15.32;4.78;;;18.10;68.40;;;;;;5082358;28;20032;-73
2023/08/01 03:06:32;;;;;;;7.72;2.70;;;18.10;68.50;;;;;;5082406;28;20093;-74
2023/08/01 03:08:59;;;;;;;5.72;2.38;;;18.10;68.50;;;;;;5077102;28;20043;-74
2023/08/01 03:11:26;;;;;;;11.00;3.00;;;18.10;68.50;;;;;;5079010;28;20067;-71
2023/08/01 03:13:52;;;;;;;7.50;2.63;;;18.10;68.50;;;;;;5081509;28;20567;-68
2023/08/01 03:16:19;;;;;;;8.68;3.03;;;18.10;68.60;;;;;;5091403;28;20036;-69
2023/08/01 03:18:45;;;;;;;13.60;5.13;;;18.00;68.40;;;;;;5089485;28;20089;-76
2023/08/01 03:21:11;;;;;;;9.05;2.92;;;18.00;68.40;;;;;;5086189;28;20028;-69
2023/08/01 03:23:37;;;;;;;7.97;2.58;;;18.00;68.40;;;;;;5082019;28;20036;-70
2023/08/01 03:26:03;;;;;;;16.67;3.63;;;18.00;68.50;;;;;;5081632;28;20089;-76
2023/08/01 03:28:29;;;;;;;6.97;2.70;;;18.00;68.50;;;;;;5086878;28;20043;-72
2023/08/01 03:30:55;;;;;;;8.93;2.40;;;18.00;68.50;;;;;;5076090;28;20648;-68
2023/08/01 03:33:21;;;;;;;8.55;3.00;;;18.00;68.50;;;;;;5089813;28;20051;-71
2023/08/01 03:35:47;;;;;;;7.22;2.50;;;17.90;68.30;;;;;;5093043;28;20066;-66
2023/08/01 03:38:13;;;;;;;8.00;2.78;;;17.90;68.30;;;;;;5083444;28;20035;-75
2023/08/01 03:40:39;;;;;;;7.07;2.95;;;17.90;68.30;;;;;;5088379;28;20028;-68
2023/08/01 03:43:06;;;;;;;8.45;3.00;;;17.90;68.20;;;;;;5085972;28;20025;-72
2023/08/01 03:45:33;;;;;;;5.82;2.70;;;17.90;68.20;;;;;;5081447;28;20039;-67
2023/08/01 03:47:59;;;;;;;6.78;2.05;;;17.90;68.20;;;;;;5086184;28;20189;-69
2023/08/01 03:50:25;;;;;;;8.00;2.80;;;17.90;68.20;;;;;;5079922;28;20539;-72
2023/08/01 03:52:51;;;;;;;6.35;2.90;;;17.90;68.10;;;;;;5092754;28;20073;-69
2023/08/01 03:55:17;;;;;;;8.30;2.67;;;17.90;68.10;;;;;;5094305;28;20031;-77
2023/08/01 03:57:43;;;;;;;8.73;2.75;;;17.80;67.90;;;;;;5087047;28;20430;-76
2023/08/01 04:00:13;;;;;;;5.93;2.80;;;17.80;67.90;;;;;;5091045;28;20054;-68
2023/08/01 04:02:41;;;;;;;5.90;2.03;;;17.80;67.90;;;;;;5091377;28;20119;-80
2023/08/01 04:05:08;;;;;;;4.70;2.15;;;17.80;67.80;;;;;;5093385;28;20040;-75
2023/08/01 04:07:38;;;;;;;5.35;2.20;;;17.80;67.80;;;;;;5086514;28;20039;-77
2023/08/01 04:10:05;;;;;;;6.38;2.40;;;17.80;67.80;;;;;;5089052;28;20028;-74
2023/08/01 04:12:34;;;;;;;7.82;2.65;;;17.80;67.80;;;;;;5086839;28;20015;-67
2023/08/01 04:15:00;;;;;;;5.10;2.17;;;17.70;67.50;;;;;;5090760;28;20446;-65
2023/08/01 04:17:26;;;;;;;7.57;2.15;;;17.70;67.50;;;;;;5080885;28;20028;-66
2023/08/01 04:19:53;;;;;;;10.40;2.30;;;17.70;67.50;;;;;;5076530;28;20032;-66
2023/08/01 04:22:19;;;;;;;8.00;2.47;;;17.70;67.50;;;;;;5083995;28;20032;-66
2023/08/01 04:24:44;;;;;;;7.18;2.85;;;17.70;67.50;;;;;;5103319;28;20029;-66
2023/08/01 04:27:10;;;;;;;4.30;1.55;;;17.70;67.40;;;;;;5093809;28;20020;-66
2023/08/01 04:29:36;;;;;;;4.53;2.92;;;17.60;67.20;;;;;;5087501;28;20070;-66
2023/08/01 04:32:02;;;;;;;4.88;2.35;;;17.60;67.10;;;;;;5085094;28;20039;-67
2023/08/01 04:34:28;;;;;;;8.80;3.17;;;17.60;67.20;;;;;;5087109;28;20063;-67
2023/08/01 04:36:55;;;;;;;6.78;1.60;;;17.60;67.30;;;;;;5084749;28;20596;-67
2023/08/01 04:39:21;;;;;;;6.55;2.38;;;17.60;67.20;;;;;;5083520;28;20089;-72
2023/08/01 04:41:46;;;;;;;7.45;2.20;;;17.60;67.20;;;;;;5081526;28;20063;-69
2023/08/01 04:44:12;;;;;;;6.57;2.00;;;17.60;67.20;;;;;;5082070;28;20578;-68
2023/08/01 04:46:38;;;;;;;6.72;1.90;;;17.50;67.00;;;;;;5067721;28;20091;-71
2023/08/01 04:49:04;;;;;;;7.45;1.90;;;17.50;67.00;;;;;;5080554;28;20035;-68
2023/08/01 04:51:30;;;;;;;5.28;2.17;;;17.50;67.00;;;;;;5091500;28;20113;-69
2023/08/01 04:53:56;;;;;;;7.60;2.50;;;17.50;67.00;;;;;;5097294;28;20388;-70
2023/08/01 04:56:22;;;;;;;4.82;2.10;;;17.50;67.00;;;;;;5068693;28;20919;-67
2023/08/01 04:58:48;;;;;;;7.00;1.77;;;17.50;67.00;;;;;;5091648;28;20040;-67
2023/08/01 05:01:14;;;;;;;4.78;1.92;;;17.50;66.90;;;;;;5082333;28;20077;-68
2023/08/01 05:03:40;;;;;;;7.53;2.20;;;17.50;66.90;;;;;;5073423;28;20028;-69
2023/08/01 05:06:06;;;;;;;8.50;2.00;;;17.50;66.90;;;;;;5082578;28;20363;-67
2023/08/01 05:08:33;;;;;;;5.43;2.10;;;17.50;66.80;;;;;;5073085;28;20588;-70
2023/08/01 05:10:59;;;;;;;4.07;1.65;;;17.50;66.80;;;;;;5074178;28;20078;-75
2023/08/01 05:13:25;;;;;;;8.27;1.95;;;17.50;66.80;;;;;;5076966;28;20517;-67
2023/08/01 05:15:51;;;;;;;4.28;1.80;;;17.50;66.90;;;;;;5082068;28;20126;-68
2023/08/01 05:18:17;;;;;;;5.40;1.67;;;17.60;67.60;;;;;;5085897;28;20451;-70
2023/08/01 05:20:43;;;;;;;8.07;2.95;;;17.60;67.90;;;;;;5082078;28;20031;-71
2023/08/01 05:23:10;;;;;;;6.18;2.28;;;17.70;68.30;;;;;;5080364;28;20040;-68
2023/08/01 05:25:36;;;;;;;7.75;2.75;;;17.80;68.70;;;;;;5083934;28;20382;-69
2023/08/01 05:28:02;;;;;;;4.57;2.28;;;17.80;68.80;;;;;;5072972;28;20755;-66
2023/08/01 05:30:28;;;;;;;5.50;2.20;;;17.90;69.10;;;;;;5082718;28;20118;-68
2023/08/01 05:32:54;;;;;;;8.32;2.40;;;17.90;69.20;;;;;;5085467;28;20471;-67
2023/08/01 05:35:21;;;;;;;7.25;2.40;;;18.00;69.40;;;;;;5077044;28;20067;-72
2023/08/01 05:37:47;;;;;;;6.78;2.20;;;18.10;69.70;;;;;;5075325;28;20031;-73
2023/08/01 05:40:13;;;;;;;4.78;2.20;;;18.10;69.80;;;;;;5076922;28;20046;-67
2023/08/01 05:42:39;;;;;;;4.70;2.05;;;18.10;69.90;;;;;;5079651;28;20123;-72
2023/08/01 05:45:05;;;;;;;6.03;2.20;;;18.20;70.20;;;;;;5075897;28;20138;-72
2023/08/01 05:47:31;;;;;;;11.90;3.85;;;18.20;70.30;;;;;;5075756;28;20048;-70
2023/08/01 05:49:57;;;;;;;7.15;2.75;;;18.30;70.50;;;;;;5096137;27;20181;-66
2023/08/01 05:52:24;;;;;;;7.25;2.45;;;18.40;70.80;;;;;;5071114;28;20357;-72
2023/08/01 05:54:49;;;;;;;6.07;2.80;;;18.40;70.80;;;;;;5081001;28;20054;-72
2023/08/01 05:57:15;;;;;;;7.03;2.55;;;18.50;70.90;;;;;;5083685;28;20757;-67
2023/08/01 05:59:42;;;;;;;9.43;2.97;;;18.50;70.90;;;;;;5086325;28;20499;-67
2023/08/01 06:02:07;;;;;;;6.25;2.78;;;18.60;71.10;;;;;;5078955;28;20043;-70
2023/08/01 06:04:33;;;;;;;6.93;2.90;;;18.70;71.30;;;;;;5075679;28;20031;-67
2023/08/01 06:06:59;;;;;;;8.85;2.40;;;18.80;71.40;;;;;;5072331;28;20029;-74
2023/08/01 06:09:25;;;;;;;8.20;2.92;;;18.80;71.50;;;;;;5066397;28;20555;-67
2023/08/01 06:11:51;;;;;;;7.00;2.70;;;18.90;72.00;;;;;;5061305;28;20032;-67
2023/08/01 06:14:18;;;;;;;8.60;2.47;;;19.10;72.50;;;;;;5076593;28;20039;-66
2023/08/01 06:16:44;;;;;;;4.53;2.80;;;19.30;72.90;;;;;;5069600;28;20119;-67
2023/08/01 06:19:09;;;;;;;6.18;2.78;;;19.50;73.10;;;;;;5075706;28;20032;-67
2023/08/01 06:21:35;;;;;;;5.70;2.40;;;19.60;73.00;;;;;;5069517;28;20461;-68
2023/08/01 06:24:01;;;;;;;4.43;2.13;;;19.80;73.10;;;;;;5075718;28;20036;-67
2023/08/01 06:26:28;;;;;;;6.95;2.63;;;19.90;73.10;;;;;;5076949;28;20044;-72
2023/08/01 06:28:54;;;;;;;3.50;2.40;;;20.00;73.10;;;;;;5075570;28;20071;-67
2023/08/01 06:31:21;;;;;;;4.60;2.63;;;20.20;73.70;;;;;;5081897;28;20055;-67
2023/08/01 06:33:47;;;;;;;4.07;2.85;;;20.30;73.10;;;;;;5077166;28;20047;-67
2023/08/01 06:36:13;;;;;;;3.35;1.98;;;20.50;73.20;;;;;;5076277;28;20113;-69
2023/08/01 06:38:39;;;;;;;7.22;3.65;;;20.70;73.10;;;;;;5075128;28;20027;-68
2023/08/01 06:41:06;;;;;;;4.63;2.65;;;21.00;73.00;;;;;;5072338;28;20524;-68
2023/08/01 06:43:32;;;;;;;4.22;2.55;;;21.20;72.60;;;;;;5069240;28;20194;-67
2023/08/01 06:45:57;;;;;;;6.32;2.15;;;21.40;72.10;;;;;;5075401;28;20095;-70
2023/08/01 06:48:23;;;;;;;5.00;2.92;;;21.70;72.00;;;;;;5070718;28;20525;-68
2023/08/01 06:50:49;;;;;;;6.38;2.53;;;21.90;71.80;;;;;;5074941;28;20558;-70
2023/08/01 06:53:15;;;;;;;5.40;2.80;;;22.10;71.40;;;;;;5080437;28;20084;-69
2023/08/01 06:55:41;;;;;;;4.18;2.20;;;22.40;71.10;;;;;;5085522;28;20062;-75
2023/08/01 06:58:07;;;;;;;5.40;2.13;;;22.60;70.50;;;;;;5085320;28;20135;-71
2023/08/01 07:00:33;;;;;;;8.98;2.90;;;22.80;70.10;;;;;;5087545;28;20116;-73
2023/08/01 07:02:59;;;;;;;5.95;1.95;;;23.10;69.80;;;;;;5081272;28;20031;-67
2023/08/01 07:05:25;;;;;;;9.10;2.30;;;23.40;69.30;;;;;;5076926;28;20033;-67
2023/08/01 07:07:51;;;;;;;3.38;1.58;;;23.50;68.60;;;;;;5068333;28;20125;-68
2023/08/01 07:10:17;;;;;;;4.85;3.05;;;23.70;68.20;;;;;;5074481;28;20099;-73
2023/08/01 07:12:43;;;;;;;5.68;1.95;;;23.80;67.70;;;;;;5080221;28;20074;-68
2023/08/01 07:15:09;;;;;;;7.30;2.22;;;23.80;67.20;;;;;;5072316;28;20721;-77
2023/08/01 07:17:35;;;;;;;5.57;2.78;;;23.80;66.80;;;;;;5079808;28;20028;-71
2023/08/01 07:20:02;;;;;;;3.58;1.77;;;23.80;66.50;;;;;;5076116;28;20036;-69
2023/08/01 07:22:28;;;;;;;3.88;2.03;;;23.80;66.30;;;;;;5074545;28;20044;-67
2023/08/01 07:24:54;;;;;;;3.78;2.05;;;24.00;66.50;;;;;;5080956;28;20085;-66
2023/08/01 07:27:21;;;;;;;6.90;2.40;;;24.10;66.10;;;;;;5080492;28;20028;-67
2023/08/01 07:29:48;;;;;;;4.13;2.05;;;24.30;65.70;;;;;;5090279;28;20346;-67
2023/08/01 07:32:14;;;;;;;4.93;2.38;;;24.60;65.40;;;;;;5085891;28;20089;-68
2023/08/01 07:34:40;;;;;;;4.70;2.00;;;25.10;64.90;;;;;;5080162;28;20508;-66
2023/08/01 07:37:06;;;;;;;6.38;2.53;;;25.70;63.80;;;;;;5075494;28;20104;-67
2023/08/01 07:39:34;;;;;;;3.38;1.83;;;26.30;62.50;;;;;;5081640;28;20043;-66
2023/08/01 07:42:00;;;;;;;12.98;4.43;;;26.90;61.30;;;;;;5080017;28;20067;-66
2023/08/01 07:44:26;;;;;;;12.10;4.00;;;27.40;60.30;;;;;;5071511;28;20671;-67
2023/08/01 07:46:52;;;;;;;9.68;4.15;;;27.80;59.60;;;;;;5079609;28;20038;-67
2023/08/01 07:49:18;;;;;;;22.30;7.13;;;27.90;59.40;;;;;;5072189;28;20571;-66
2023/08/01 07:51:44;;;;;;;9.52;4.13;;;28.00;59.40;;;;;;5079552;28;20032;-71
2023/08/01 07:54:10;;;;;;;12.38;4.65;;;28.00;59.50;;;;;;5081462;28;20028;-67
2023/08/01 07:56:36;;;;;;;13.07;4.70;;;27.90;59.60;;;;;;5083188;28;20479;-67
2023/08/01 07:59:02;;;;;;;11.65;4.00;;;27.90;59.70;;;;;;5085510;28;20039;-67
2023/08/01 08:01:28;;;;;;;10.75;3.92;;;27.90;59.60;;;;;;5080804;28;20086;-72
2023/08/01 08:03:54;;;;;;;9.20;3.08;;;27.90;59.70;;;;;;5078656;28;20630;-71
2023/08/01 08:06:21;;;;;;;7.07;3.60;;;27.90;59.60;;;;;;5078188;28;20040;-67
2023/08/01 08:08:47;;;;;;;8.02;3.22;;;28.00;59.30;;;;;;5065355;28;20569;-67
2023/08/01 08:11:13;;;;;;;6.55;2.97;;;28.10;59.70;;;;;;5079976;28;20036;-67
2023/08/01 08:13:39;;;;;;;6.85;3.00;;;28.10;58.80;;;;;;5071800;28;20082;-67
2023/08/01 08:16:05;;;;;;;4.97;2.22;;;28.10;58.50;;;;;;5078541;28;20310;-69
2023/08/01 08:18:31;;;;;;;4.35;2.42;;;28.00;58.40;;;;;;5081085;28;20483;-67
2023/08/01 08:20:58;;;;;;;4.75;2.45;;;27.90;58.50;;;;;;5085718;28;20039;-67
2023/08/01 08:23:24;;;;;;;7.78;3.20;;;27.70;58.60;;;;;;5095015;28;20032;-67
2023/08/01 08:25:50;;;;;;;5.95;2.72;;;27.50;58.90;;;;;;5078834;28;20032;-67
2023/08/01 08:28:28;;;;;;;4.00;2.25;;;27.40;59.20;;;;;;5085628;28;20383;-69
2023/08/01 08:30:54;;;;;;;5.28;2.47;;;27.20;59.40;;;;;;5069843;28;20050;-70
2023/08/01 08:33:21;;;;;;;5.28;2.53;;;27.10;59.70;;;;;;5080280;28;20028;-71
2023/08/01 08:35:48;;;;;;;7.43;2.78;;;26.90;59.70;;;;;;5081358;28;20046;-68
2023/08/01 08:38:14;;;;;;;3.83;2.13;;;26.80;59.70;;;;;;5079136;28;20449;-75
2023/08/01 08:40:59;;;;;;;5.35;1.98;;;26.80;59.90;;;;;;5079973;28;20032;-72
2023/08/01 08:43:27;;;;;;;5.20;2.50;;;26.70;60.50;;;;;;5073132;28;20082;-73
2023/08/01 08:45:59;;;;;;;6.43;2.45;;;26.60;60.50;;;;;;5080373;28;20055;-69
2023/08/01 08:48:25;;;;;;;;;;;26.60;60.00;;;;;;5078471;28;20036;-69
2023/08/01 08:50:52;;;;;;;5.28;2.65;;;26.50;60.20;;;;;;5071542;28;19919;-73
2023/08/01 08:53:18;;;;;;;5.55;2.38;;;26.50;60.40;;;;;;5083271;28;20100;-73
2023/08/01 08:55:44;;;;;;;6.78;2.40;;;26.50;60.30;;;;;;5082777;28;20551;-71
2023/08/01 08:58:11;;;;;;;6.50;2.15;;;26.50;60.10;;;;;;5080673;28;20060;-70
2023/08/01 09:00:37;;;;;;;5.05;2.38;;;26.50;60.00;;;;;;5086463;28;20039;-69
2023/08/01 09:03:04;;;;;;;4.13;2.30;;;26.50;59.70;;;;;;5074255;28;20055;-69
2023/08/01 09:05:46;;;;;;;3.90;1.83;;;26.60;59.50;;;;;;5073017;28;20047;-67
2023/08/01 09:08:18;;;;;;;4.50;1.90;;;26.60;59.30;;;;;;5062809;28;20067;-75
2023/08/01 09:10:45;;;;;;;;;;;26.70;59.00;;;;;;5080307;28;20213;-75
2023/08/01 09:13:11;;;;;;;3.97;2.00;;;26.70;59.10;;;;;;5074960;28;19914;-67
2023/08/01 09:15:39;;;;;;;3.03;1.48;;;26.80;59.00;;;;;;5070033;28;20036;-69
2023/08/01 09:18:07;;;;;;;5.63;1.70;;;26.80;58.80;;;;;;5078081;28;20028;-75
2023/08/01 09:20:49;;;;;;;3.83;2.08;;;26.90;58.50;;;;;;5076284;28;20476;-72
2023/08/01 09:23:18;;;;;;;7.47;2.83;;;26.90;58.30;;;;;;5085538;28;20035;-70
2023/08/01 09:25:45;;;;;;;4.72;2.75;;;26.90;58.40;;;;;;5076915;28;20055;-70
2023/08/01 09:28:19;;;;;;;4.90;2.38;;;27.00;58.30;;;;;;5070079;28;20113;-73
2023/08/01 09:30:55;;;;;;;4.45;2.03;;;27.10;58.30;;;;;;5075922;28;20031;-74
2023/08/01 09:33:22;;;;;;;5.40;2.05;;;27.10;58.00;;;;;;5078770;28;20059;-73
2023/08/01 09:35:50;;;;;;;11.93;4.38;;;27.20;57.90;;;;;;5066596;28;20048;-72
2023/08/01 09:38:17;;;;;;;10.25;3.88;;;27.30;57.60;;;;;;5087405;28;20123;-67
2023/08/01 09:40:45;;;;;;;8.40;2.60;;;27.30;57.40;;;;;;5082954;28;20080;-67
2023/08/01 09:43:13;;;;;;;7.40;2.78;;;27.40;56.80;;;;;;5074755;28;20143;-72
2023/08/01 09:45:53;;;;;;;6.30;2.40;;;27.40;56.40;;;;;;5078665;28;20458;-67
2023/08/01 09:48:25;;;;;;;7.38;2.97;;;27.50;55.90;;;;;;5077438;28;20024;-67
2023/08/01 09:50:53;;;;;;;9.18;3.10;;;27.60;55.90;;;;;;5065235;28;20032;-68
2023/08/01 09:53:18;;;;;;;7.75;2.70;;;27.60;55.70;;;;;;5076492;28;20036;-73
2023/08/01 09:55:48;;;;;;;7.55;2.53;;;27.70;55.50;;;;;;5078309;28;20719;-75
2023/08/01 09:58:15;;;;;;;5.20;2.95;;;27.80;55.10;;;;;;5073123;28;20032;-72
2023/08/01 10:00:43;;;;;;;5.63;2.60;;;27.80;54.90;;;;;;5077826;28;20028;-67
2023/08/01 10:03:09;;;;;;;4.95;1.75;;;27.90;54.80;;;;;;5077183;28;20123;-68
2023/08/01 10:05:38;;;;;;;7.85;2.83;;;27.90;54.60;;;;;;5073719;28;20051;-75
2023/08/01 10:08:04;;;;;;;4.32;2.17;;;28.00;54.30;;;;;;5066558;28;20036;-69
2023/08/01 10:10:31;;;;;;;3.95;1.35;;;28.00;54.00;;;;;;5077883;28;20518;-72
2023/08/01 10:12:57;;;;;;;5.03;1.90;;;28.00;53.50;;;;;;5070892;28;20099;-76
2023/08/01 10:15:25;;;;;;;3.40;2.00;;;28.10;53.30;;;;;;5069367;28;20468;-67
2023/08/01 10:17:52;;;;;;;6.95;2.72;;;28.20;53.30;;;;;;5077152;28;20036;-70
2023/08/01 10:20:21;;;;;;;5.50;2.13;;;28.30;53.40;;;;;;5083624;28;20874;-68
2023/08/01 10:22:49;;;;;;;4.38;1.75;;;28.40;53.30;;;;;;5077994;28;20601;-70
2023/08/01 10:25:18;;;;;;;3.60;1.95;;;28.50;53.10;;;;;;5077691;28;20036;-68
2023/08/01 10:27:44;;;;;;;6.07;2.00;;;28.70;53.00;;;;;;5082332;28;20072;-67
2023/08/01 10:30:10;;;;;;;2.40;1.38;;;28.90;52.80;;;;;;5081646;28;20143;-72
2023/08/01 10:32:38;;;;;;;4.85;1.60;;;29.00;52.40;;;;;;5080243;28;20391;-68
2023/08/01 10:35:06;;;;;;;5.40;1.70;;;29.10;52.20;;;;;;5082105;28;20541;-71
2023/08/01 10:37:48;;;;;;;4.45;2.25;;;29.20;52.40;;;;;;5079985;28;20121;-69
2023/08/01 10:40:14;;;;;;;4.00;1.90;;;29.30;52.40;;;;;;5079216;28;20092;-67
2023/08/01 10:42:45;;;;;;;4.00;1.85;;;29.30;52.50;;;;;;5080489;28;20068;-70
2023/08/01 10:45:24;;;;;;;5.15;2.00;;;29.30;52.60;;;;;;5094874;27;20062;-68
2023/08/01 10:47:51;;;;;;;6.07;2.20;;;29.20;52.40;;;;;;5087915;28;20038;-70
2023/08/01 10:50:18;;;;;;;8.48;2.00;;;29.30;52.60;;;;;;5080741;28;20052;-68
2023/08/01 10:52:44;;;;;;;4.75;2.03;;;29.30;53.10;;;;;;5078649;28;20040;-71
2023/08/01 10:55:11;;;;;;;4.20;1.45;;;29.40;52.50;;;;;;5082892;28;20035;-71
2023/08/01 10:57:47;;;;;;;2.78;1.70;;;29.50;52.30;;;;;;5072504;28;20036;-74
2023/08/01 11:00:17;;;;;;;2.40;1.30;;;29.60;51.90;;;;;;5092448;28;20515;-70
2023/08/01 11:02:51;;;;;;;1.95;0.95;;;29.70;51.60;;;;;;5081865;28;20029;-71
2023/08/01 11:05:18;;;;;;;3.70;1.60;;;29.80;51.40;;;;;;5082677;28;20138;-70
2023/08/01 11:07:57;;;;;;;3.95;1.70;;;29.90;51.50;;;;;;5069382;28;20036;-70
2023/08/01 11:10:28;;;;;;;7.35;1.80;;;29.90;51.20;;;;;;5094955;28;20078;-69
2023/08/01 11:12:55;;;;;;;10.27;2.57;;;30.00;51.10;;;;;;5084390;28;20036;-69
2023/08/01 11:15:21;;;;;;;6.05;2.25;;;30.10;51.10;;;;;;5074532;28;20036;-75
2023/08/01 11:17:49;;;;;;;7.18;2.60;;;30.10;51.00;;;;;;5076979;28;20152;-70
2023/08/01 11:20:16;;;;;;;4.85;2.03;;;30.10;50.80;;;;;;5095382;28;20043;-69
2023/08/01 11:22:57;;;;;;;5.35;1.95;;;30.10;50.80;;;;;;5071858;28;20028;-68
2023/08/01 11:25:48;;;;;;;7.45;2.88;;;30.10;50.30;;;;;;5081861;28;20048;-68
2023/08/01 11:28:16;;;;;;;5.00;1.75;;;30.10;49.90;;;;;;5080254;28;20032;-72
2023/08/01 11:30:43;;;;;;;6.07;2.25;;;30.20;50.00;;;;;;5079599;28;20032;-69
2023/08/01 11:33:21;;;;;;;4.57;1.40;;;30.30;49.80;;;;;;5079833;28;20031;-67
2023/08/01 11:35:57;;;;;;;5.68;2.55;;;30.40;49.30;;;;;;5081653;28;20036;-68
2023/08/01 11:38:25;;;;;;;5.30;2.22;;;30.40;49.10;;;;;;5081409;28;20047;-68
2023/08/01 11:40:52;;;;;;;5.85;2.17;;;30.50;49.10;;;;;;5084259;28;20036;-70
2023/08/01 11:43:18;;;;;;;4.70;1.80;;;30.60;48.90;;;;;;5078665;28;20038;-72
2023/08/01 11:45:51;;;;;;;4.07;1.88;;;30.70;48.70;;;;;;5081744;28;20578;-69
2023/08/01 11:48:19;;;;;;;6.88;2.25;;;30.70;48.30;;;;;;5092422;28;20036;-76
2023/08/01 11:50:45;;;;;;;4.28;2.00;;;30.70;48.10;;;;;;5089716;28;20124;-76
2023/08/01 11:53:21;;;;;;;5.75;2.08;;;30.70;47.90;;;;;;5081488;28;20488;-73
2023/08/01 11:55:49;;;;;;;4.97;1.60;;;30.80;47.80;;;;;;5080683;28;20395;-69
2023/08/01 11:58:15;;;;;;;4.50;1.83;;;30.80;47.80;;;;;;5078350;28;20089;-69
2023/08/01 12:00:42;;;;;;;5.50;1.90;;;30.90;47.80;;;;;;5087461;28;20543;-77
2023/08/01 12:03:15;;;;;;;4.90;1.88;;;31.00;47.80;;;;;;5080208;28;20487;-68
2023/08/01 12:05:41;;;;;;;7.28;2.90;;;31.10;47.60;;;;;;5079183;28;20040;-71
2023/08/01 12:08:12;;;;;;;20.00;5.63;;;31.20;47.80;;;;;;5066718;28;20024;-71
2023/08/01 12:10:42;;;;;;;25.67;7.30;;;31.20;48.20;;;;;;5075160;28;20044;-76
2023/08/01 12:13:28;;;;;;;29.27;9.20;;;31.10;48.50;;;;;;5076910;28;20665;-68
2023/08/01 12:15:56;;;;;;;29.35;10.15;;;31.10;48.90;;;;;;5063848;28;20042;-68
2023/08/01 12:18:29;;;;;;;28.13;7.82;;;31.00;49.20;;;;;;5077699;28;20032;-73
2023/08/01 12:20:56;;;;;;;27.35;9.38;;;30.90;49.60;;;;;;5078962;28;20138;-68
2023/08/01 12:23:22;;;;;;;21.70;7.97;;;30.80;49.90;;;;;;5089005;28;20046;-69
2023/08/01 12:25:49;;;;;;;20.40;8.10;;;30.70;50.20;;;;;;5080156;28;20025;-67
2023/08/01 12:28:15;;;;;;;26.88;8.98;;;30.60;50.40;;;;;;5079927;28;20040;-69
2023/08/01 12:30:42;;;;;;;20.52;8.32;;;30.40;50.60;;;;;;5069933;28;20388;-69
2023/08/01 12:33:09;;;;;;;24.80;7.90;;;30.40;50.90;;;;;;5078957;28;20039;-67
2023/08/01 12:35:39;;;;;;;18.40;7.35;;;30.40;50.90;;;;;;5079493;28;20048;-68
2023/08/01 12:38:06;;;;;;;16.98;8.13;;;30.40;51.00;;;;;;5076457;28;20571;-69
2023/08/01 12:40:32;;;;;;;19.38;6.80;;;30.40;51.10;;;;;;5079712;28;20072;-68
2023/08/01 12:42:58;;;;;;;16.60;6.65;;;30.40;51.10;;;;;;5072186;28;20472;-76
2023/08/01 12:45:23;;;;;;;16.45;5.85;;;30.50;51.10;;;;;;5077703;28;20047;-70